Time;durP1;ratioP1;P1;durP2;ratioP2;P2;SDS_P1;SDS_P2;PMS_P1;PMS_P2;Temp;Humidity;BMP_temperature;BMP_pressure;BME280_temperature;BME280_humidity;BME280_pressure;Samples;Min_cycle;Max_cycle;Signal;HPM_P1;HPM_P2
2021/11/26 00:00:59;;;;;;;128.90;74.18;;;180.10;2252.80;;;;;;5043781;28;20125;-85
2021/11/26 00:03:25;;;;;;;131.57;80.45;;;204.80;2252.80;;;;;;5036199;28;20052;-86
2021/11/26 00:05:51;;;;;;;138.45;86.78;;;180.10;2252.80;;;;;;5036068;28;20051;-84
2021/11/26 00:08:17;;;;;;;132.90;84.70;;;204.80;2252.80;;;;;;5035709;28;20558;-86
2021/11/26 00:10:42;;;;;;;114.75;75.38;;;180.10;2252.80;;;;;;5035966;28;20171;-85
2021/11/26 00:13:10;;;;;;;120.30;76.63;;;180.10;2252.80;;;;;;5047928;28;20360;-84
2021/11/26 00:15:46;;;;;;;160.40;88.72;;;204.80;2252.80;;;;;;5077402;28;20036;-87
2021/11/26 00:18:19;;;;;;;126.18;72.68;;;180.10;2252.80;;;;;;5096085;28;20099;-88
2021/11/26 00:34:27;;;;;;;106.15;66.03;;;180.00;2252.80;;;;;;5012449;28;20030;-88
2021/11/26 00:37:24;;;;;;;;;;;;;;;;;;;;;
2021/11/26 00:40:25;;;;;;;80.28;50.60;;;179.70;2252.80;;;;;;5013550;28;20409;-90
2021/11/26 00:43:17;;;;;;;75.95;47.85;;;179.50;2252.80;;;;;;4996168;28;20033;-90
2021/11/26 00:45:59;;;;;;;70.88;43.70;;;179.70;2252.80;;;;;;5077238;28;20030;-90
2021/11/26 00:48:59;;;;;;;62.25;40.00;;;179.80;2252.80;;;;;;5077514;28;20020;-90
2021/11/26 00:51:39;;;;;;;59.33;38.15;;;179.80;2252.80;;;;;;5076628;28;20027;-90
2021/11/26 00:54:19;;;;;;;56.78;36.42;;;180.00;2252.80;;;;;;5076976;28;20024;-90
2021/11/26 00:57:07;;;;;;;88.78;54.30;;;180.00;2252.80;;;;;;5074420;28;20043;-91
2021/11/26 00:59:52;;;;;;;;;;;;;;;;;;;;;
2021/11/26 01:03:03;;;;;;;91.82;55.70;;;179.70;2252.80;;;;;;5075061;28;20533;-88
2021/11/26 01:05:46;;;;;;;91.95;56.40;;;179.50;2252.80;;;;;;5073718;28;20021;-89
2021/11/26 01:08:37;;;;;;;79.88;46.22;;;179.50;2252.80;;;;;;5073939;28;20020;-89
2021/11/26 01:11:07;;;;;;;65.55;40.50;;;179.40;2252.80;;;;;;5073777;28;20086;-89
2021/11/26 01:13:45;;;;;;;59.28;38.90;;;179.50;2252.80;;;;;;5073776;28;20063;-89
2021/11/26 01:16:26;;;;;;;48.10;31.45;;;179.60;2252.80;;;;;;5073197;28;20127;-90
2021/11/26 01:19:00;;;;;;;50.20;32.35;;;179.70;2252.80;;;;;;5073422;28;20062;-88
2021/11/26 01:21:28;;;;;;;46.38;31.30;;;179.80;2252.80;;;;;;5073421;28;20020;-89
2021/11/26 01:23:56;;;;;;;40.83;28.48;;;179.90;2252.80;;;;;;5073281;28;20033;-88
2021/11/26 01:26:41;;;;;;;34.33;23.25;;;180.00;2252.80;;;;;;5073021;28;20024;-88
2021/11/26 01:29:28;;;;;;;33.05;22.02;;;180.10;2252.80;;;;;;5073685;28;20112;-87
2021/11/26 01:31:54;;;;;;;30.42;19.40;;;204.80;2252.80;;;;;;5073574;28;20032;-89
2021/11/26 01:35:15;;;;;;;31.63;20.08;;;204.80;2252.80;;;;;;5073018;28;20116;-90
2021/11/26 01:38:11;;;;;;;28.73;19.65;;;204.90;2252.80;;;;;;5053320;28;20055;-90
2021/11/26 01:47:37;;;;;;;55.42;35.22;;;205.00;2252.80;;;;;;5078289;28;20035;-90
2021/11/26 01:50:25;;;;;;;54.95;35.63;;;204.80;2252.80;;;;;;5075981;28;20024;-89
2021/11/26 02:03:55;;;;;;;38.58;26.23;;;204.80;2252.80;;;;;;5057826;28;20078;-89
2021/11/26 02:07:16;;;;;;;59.13;37.05;;;205.10;2252.80;;;;;;5034895;28;20049;-90
2021/11/26 02:10:41;;;;;;;48.78;31.77;;;180.10;2252.80;;;;;;5016937;28;20026;-90
2021/11/26 02:13:19;;;;;;;49.08;31.67;;;180.10;2252.80;;;;;;4982018;28;20030;-88
2021/11/26 02:16:24;;;;;;;42.13;30.02;;;204.90;2252.80;;;;;;4979488;28;20031;-88
2021/11/26 02:19:10;;;;;;;45.10;32.03;;;204.90;2252.80;;;;;;4983802;28;20049;-89
2021/11/26 02:22:01;;;;;;;41.55;28.70;;;204.80;2252.80;;;;;;4979531;28;20030;-90
2021/11/26 02:28:49;;;;;;;;;;;;;;;;;;;;;
2021/11/26 02:31:42;;;;;;;;;;;;;;;;;;;;;
2021/11/26 02:34:57;;;;;;;29.73;19.83;;;204.90;2252.80;;;;;;5035350;28;20497;-89
2021/11/26 02:37:47;;;;;;;45.83;28.17;;;204.90;2252.80;;;;;;5030578;28;20060;-89
2021/11/26 02:40:29;;;;;;;48.88;29.63;;;204.90;2252.80;;;;;;5055462;28;20021;-88
2021/11/26 02:46:26;;;;;;;62.92;41.60;;;204.80;2252.80;;;;;;5057295;28;20032;-90
2021/11/26 02:49:09;;;;;;;55.47;35.78;;;180.10;2252.80;;;;;;5055966;28;20095;-89
2021/11/26 02:51:47;;;;;;;66.30;39.95;;;180.00;2252.80;;;;;;5055762;28;20021;-91
2021/11/26 02:58:36;;;;;;;;;;;;;;;;;;;;;
2021/11/26 03:01:45;;;;;;;53.03;31.80;;;180.10;2252.80;;;;;;5014762;28;20029;-89
2021/11/26 03:08:53;;;;;;;44.03;31.17;;;180.00;2252.80;;;;;;5014259;28;20026;-89
2021/11/26 03:22:59;;;;;;;;;;;;;;;;;;;;;
2021/11/26 03:33:27;;;;;;;35.35;22.50;;;205.00;2252.80;;;;;;4937107;29;20054;-90
2021/11/26 03:36:28;;;;;;;35.25;22.52;;;205.10;2252.80;;;;;;4957652;28;20027;-88
2021/11/26 03:42:12;;;;;;;30.48;21.15;;;205.10;2252.80;;;;;;4981155;28;20030;-88
2021/11/26 03:45:17;;;;;;;45.75;28.83;;;205.10;2252.80;;;;;;5057448;28;20448;-88
2021/11/26 04:02:54;;;;;;;27.13;18.33;;;205.10;2252.80;;;;;;4993810;28;20212;-89
2021/11/26 04:09:58;;;;;;;;;;;;;;;;;;;;;
2021/11/26 04:19:59;;;;;;;25.80;16.20;;;205.20;2252.80;;;;;;5013732;28;20029;-90
2021/11/26 04:23:46;;;;;;;;;;;;;;;;;;;;;
2021/11/26 04:27:15;;;;;;;23.88;17.77;;;205.20;2252.80;;;;;;4878999;29;20034;-90
2021/11/26 04:30:15;;;;;;;55.03;36.60;;;205.10;2252.80;;;;;;4881906;29;20176;-88
2021/11/26 04:36:20;;;;;;;49.13;31.92;;;204.80;2252.80;;;;;;4894108;29;20028;-88
2021/11/26 04:38:56;;;;;;;47.05;32.17;;;204.90;2252.80;;;;;;4958593;28;20026;-89
2021/11/26 04:41:44;;;;;;;45.75;30.60;;;204.90;2252.80;;;;;;5056740;28;20024;-88
2021/11/26 04:44:48;;;;;;;;;;;;;;;;;;;;;
2021/11/26 04:51:49;;;;;;;;;;;;;;;;;;;;;
2021/11/26 05:01:30;;;;;;;30.65;20.13;;;205.10;2252.80;;;;;;5072607;28;20033;-90
2021/11/26 05:11:50;;;;;;;;;;;;;;;;;;;;;
2021/11/26 05:15:17;;;;;;;28.92;19.38;;;205.30;2252.80;;;;;;4912545;28;20160;-89
2021/11/26 05:17:49;;;;;;;28.95;19.38;;;205.30;2252.80;;;;;;4960130;28;20026;-90
2021/11/26 05:24:12;;;;;;;29.02;19.17;;;205.30;2252.80;;;;;;4970705;28;20023;-90
2021/11/26 05:26:39;;;;;;;26.40;18.15;;;205.30;2252.80;;;;;;4997258;28;20024;-89
2021/11/26 05:29:14;;;;;;;28.73;18.98;;;205.30;2252.80;;;;;;5060627;28;20467;-90
2021/11/26 05:31:42;;;;;;;29.10;19.20;;;205.40;2252.80;;;;;;5060737;28;20416;-88
2021/11/26 05:34:25;;;;;;;32.70;20.13;;;205.40;2252.80;;;;;;5060423;28;20108;-89
2021/11/26 05:36:55;;;;;;;30.40;20.33;;;205.50;2252.80;;;;;;5060234;28;20107;-87
2021/11/26 05:39:50;;;;;;;31.60;21.05;;;205.50;2252.80;;;;;;5059887;28;20082;-90
2021/11/26 05:45:58;;;;;;;38.00;22.48;;;205.60;2252.80;;;;;;5008607;28;20150;-87
2021/11/26 05:55:36;;;;;;;43.67;31.20;;;205.60;2252.80;;;;;;5001394;28;20054;-89
2021/11/26 05:58:37;;;;;;;41.58;25.38;;;205.50;2252.80;;;;;;5006844;28;20026;-90
2021/11/26 06:01:52;;;;;;;;;;;;;;;;;;;;;
2021/11/26 06:11:52;;;;;;;;;;;;;;;;;;;;;
2021/11/26 06:14:53;;;;;;;30.02;19.33;;;205.20;2252.80;;;;;;5077550;28;20023;-91
2021/11/26 06:17:58;;;;;;;25.45;17.42;;;205.20;2252.80;;;;;;5059043;28;20037;-90
2021/11/26 06:28:28;;;;;;;;;;;;;;;;;;;;;
2021/11/26 06:31:51;;;;;;;29.73;21.75;;;205.40;2252.80;;;;;;4937612;29;20038;-88
2021/11/26 06:52:01;;;;;;;192.93;106.32;;;205.70;2252.80;;;;;;4900010;29;20063;-89
2021/11/26 07:02:38;;;;;;;;;;;;;;;;;;;;;
2021/11/26 07:06:03;;;;;;;112.85;75.10;;;205.60;2252.80;;;;;;4933501;29;20043;-87
2021/11/26 07:09:01;;;;;;;114.85;71.28;;;205.60;2252.80;;;;;;4935551;28;20039;-88
2021/11/26 07:12:41;;;;;;;119.63;77.13;;;205.60;2252.80;;;;;;5029688;28;20025;-90
2021/11/26 07:15:47;;;;;;;102.85;67.95;;;205.60;2252.80;;;;;;5000427;28;20025;-89
2021/11/26 07:19:21;;;;;;;;;;;;;;;;;;;;;
2021/11/26 07:21:50;;;;;;;49.85;32.25;;;205.60;2252.80;;;;;;5056098;28;20021;-88
2021/11/26 07:24:43;;;;;;;49.85;31.17;;;205.60;2252.80;;;;;;5038819;28;20025;-88
2021/11/26 07:27:22;;;;;;;43.95;28.70;;;205.70;2252.80;;;;;;5038363;28;20468;-89
2021/11/26 07:30:13;;;;;;;36.30;24.85;;;230.40;2252.80;;;;;;5038598;28;20021;-87
2021/11/26 07:32:42;;;;;;;32.75;21.98;;;230.40;2252.80;;;;;;5037939;28;20025;-91
2021/11/26 07:35:11;;;;;;;36.22;23.25;;;230.40;2252.80;;;;;;5038152;28;20047;-88
2021/11/26 07:37:47;;;;;;;36.10;25.00;;;231.10;2252.80;;;;;;5038216;28;20350;-91
2021/11/26 07:40:30;;;;;;;34.58;23.13;;;230.50;2252.80;;;;;;5037201;28;20017;-90
2021/11/26 07:43:05;;;;;;;41.00;27.27;;;230.50;2252.80;;;;;;5038232;28;20024;-90
2021/11/26 07:46:14;;;;;;;38.33;24.58;;;230.50;2252.80;;;;;;5038235;28;20367;-88
2021/11/26 07:49:17;;;;;;;34.20;22.80;;;230.50;2252.80;;;;;;5034385;28;20025;-89
2021/11/26 07:52:13;;;;;;;30.30;21.90;;;230.50;2252.80;;;;;;5026263;28;20041;-89
2021/11/26 07:55:09;;;;;;;33.10;22.63;;;230.60;2252.80;;;;;;5037873;28;20025;-88
2021/11/26 07:58:02;;;;;;;38.65;24.65;;;230.60;2252.80;;;;;;5027166;28;20036;-90
2021/11/26 08:00:38;;;;;;;26.63;18.38;;;230.60;2252.80;;;;;;5038121;28;20017;-91
2021/11/26 08:03:16;;;;;;;25.83;18.95;;;230.60;2252.80;;;;;;5038259;28;20025;-90
2021/11/26 08:05:58;;;;;;;29.08;19.13;;;230.60;2252.80;;;;;;5040382;28;20497;-88
2021/11/26 08:09:11;;;;;;;32.90;20.48;;;230.70;2252.80;;;;;;5057795;28;20039;-88
2021/11/26 08:11:59;;;;;;;27.38;19.80;;;230.70;2252.80;;;;;;5057279;28;20032;-89
2021/11/26 08:14:42;;;;;;;25.23;18.27;;;230.70;2252.80;;;;;;5057483;28;20031;-89
2021/11/26 08:17:14;;;;;;;;;;;230.70;2252.80;;;;;;5057721;28;20112;-87
2021/11/26 08:19:39;;;;;;;30.50;18.90;;;230.60;2252.80;;;;;;5057339;28;19900;-85
2021/11/26 08:22:06;;;;;;;29.02;20.40;;;230.70;2252.80;;;;;;5057064;28;20016;-85
2021/11/26 08:24:32;;;;;;;31.27;19.98;;;230.70;2252.80;;;;;;5057090;28;20016;-85
2021/11/26 08:26:58;;;;;;;30.05;20.02;;;230.60;2252.80;;;;;;5057012;28;20039;-86
2021/11/26 08:29:24;;;;;;;28.08;19.85;;;230.60;2252.80;;;;;;5057148;28;20387;-87
2021/11/26 08:31:51;;;;;;;29.10;19.95;;;230.60;2252.80;;;;;;5057123;28;20020;-87
2021/11/26 08:34:17;;;;;;;29.40;20.20;;;230.60;2252.80;;;;;;5056989;28;20401;-86
2021/11/26 08:36:43;;;;;;;33.88;21.40;;;230.60;2252.80;;;;;;5056890;28;20368;-87
2021/11/26 08:39:09;;;;;;;24.48;18.13;;;230.60;2252.80;;;;;;5057007;28;20021;-87
2021/11/26 08:41:36;;;;;;;28.85;20.45;;;230.60;2252.80;;;;;;5056899;28;20020;-88
2021/11/26 08:44:02;;;;;;;24.10;18.30;;;230.60;2252.80;;;;;;5057149;28;20371;-87
2021/11/26 08:46:28;;;;;;;25.02;17.60;;;231.10;2252.80;;;;;;5056829;28;20024;-87
2021/11/26 08:48:54;;;;;;;28.25;18.80;;;230.60;2252.80;;;;;;5056825;28;20077;-87
2021/11/26 08:51:23;;;;;;;30.20;22.08;;;230.60;2252.80;;;;;;5056671;28;20521;-87
2021/11/26 08:53:49;;;;;;;34.50;23.85;;;230.60;2252.80;;;;;;5057308;28;20105;-88
2021/11/26 08:56:15;;;;;;;23.17;17.15;;;230.50;2252.80;;;;;;5056739;28;20063;-88
2021/11/26 08:58:45;;;;;;;19.65;15.52;;;205.70;2252.80;;;;;;5056512;28;20041;-86
2021/11/26 09:01:11;;;;;;;16.92;12.20;;;230.60;2252.80;;;;;;5056542;28;20027;-87
2021/11/26 09:03:37;;;;;;;16.40;11.52;;;230.60;2252.80;;;;;;5056556;28;20025;-87
2021/11/26 09:06:04;;;;;;;14.90;10.05;;;230.60;2252.80;;;;;;5056598;28;20043;-87
2021/11/26 09:08:30;;;;;;;15.93;11.32;;;230.70;2252.80;;;;;;5056976;28;20024;-86
2021/11/26 09:10:56;;;;;;;10.85;7.65;;;230.70;2252.80;;;;;;5056512;28;20467;-86
2021/11/26 09:13:22;;;;;;;11.80;7.47;;;230.70;2252.80;;;;;;5056573;28;20027;-86
2021/11/26 09:15:48;;;;;;;11.13;7.70;;;230.80;2252.80;;;;;;5056547;28;20107;-87
2021/11/26 09:18:15;;;;;;;7.93;6.22;;;230.80;2252.80;;;;;;5074519;28;20021;-87
2021/11/26 09:20:43;;;;;;;9.43;6.07;;;230.80;2252.80;;;;;;5056637;28;20029;-86
2021/11/26 09:23:10;;;;;;;11.13;6.72;;;256.20;2252.80;;;;;;5056579;28;20020;-87
2021/11/26 09:25:37;;;;;;;12.23;9.00;;;230.90;2252.80;;;;;;5056463;28;20035;-86
2021/11/26 09:28:03;;;;;;;11.73;7.65;;;230.90;2252.80;;;;;;5056180;28;20025;-87
2021/11/26 09:30:31;;;;;;;8.95;6.20;;;230.90;2252.80;;;;;;5074495;28;20164;-85
2021/11/26 09:32:57;;;;;;;10.40;6.28;;;230.90;2252.80;;;;;;5056118;28;20017;-84
2021/11/26 09:35:25;;;;;;;13.32;7.82;;;230.90;2252.80;;;;;;5055805;28;20024;-85
2021/11/26 09:37:51;;;;;;;8.80;6.18;;;231.00;2252.80;;;;;;5056112;28;20571;-86
2021/11/26 09:40:19;;;;;;;7.55;5.40;;;230.90;2252.80;;;;;;5055597;28;20020;-85
2021/11/26 09:42:46;;;;;;;8.25;5.47;;;231.00;2252.80;;;;;;5056329;28;20025;-86
2021/11/26 09:45:17;;;;;;;6.75;4.00;;;231.00;2252.80;;;;;;5056078;28;20024;-88
2021/11/26 09:47:43;;;;;;;9.30;6.43;;;231.00;2252.80;;;;;;5056552;28;20086;-88
2021/11/26 09:50:09;;;;;;;8.40;6.50;;;231.00;2252.80;;;;;;5056101;28;20509;-84
2021/11/26 09:52:40;;;;;;;9.15;6.13;;;231.00;2252.80;;;;;;5055523;28;20474;-86
2021/11/26 09:55:09;;;;;;;9.23;6.18;;;231.00;2252.80;;;;;;5055481;28;20111;-87
2021/11/26 09:57:37;;;;;;;7.03;4.57;;;231.00;2252.80;;;;;;5055792;28;20077;-87
2021/11/26 10:00:06;;;;;;;9.35;6.07;;;231.00;2252.80;;;;;;5056168;28;20082;-88
2021/11/26 10:02:40;;;;;;;10.05;6.95;;;231.10;2252.80;;;;;;5056567;28;20056;-86
2021/11/26 10:05:08;;;;;;;7.68;3.28;;;231.00;2252.80;;;;;;5059745;28;20107;-87
2021/11/26 10:07:53;;;;;;;8.75;6.68;;;231.10;2252.80;;;;;;5059041;28;20049;-90
2021/11/26 10:10:21;;;;;;;6.30;4.38;;;231.10;2252.80;;;;;;5059538;28;20031;-85
2021/11/26 10:13:03;;;;;;;10.15;5.82;;;231.20;2252.80;;;;;;5058995;28;20436;-81
2021/11/26 10:15:42;;;;;;;10.10;7.22;;;231.20;2252.80;;;;;;5058713;28;20376;-82
2021/11/26 10:18:22;;;;;;;12.63;8.68;;;231.20;2252.80;;;;;;5058890;28;20527;-83
2021/11/26 10:21:07;;;;;;;13.13;8.65;;;231.20;2252.80;;;;;;5058694;28;20406;-83
2021/11/26 10:23:38;;;;;;;25.63;16.42;;;231.20;2252.80;;;;;;5058242;28;20025;-83
2021/11/26 10:26:24;;;;;;;9.48;6.03;;;231.20;2252.80;;;;;;5058473;28;20031;-84
2021/11/26 10:29:00;;;;;;;10.95;6.32;;;231.20;2252.80;;;;;;5057798;28;20027;-85
2021/11/26 10:31:27;;;;;;;9.93;6.05;;;231.30;2252.80;;;;;;5058440;28;20111;-82
2021/11/26 10:33:59;;;;;;;14.25;9.77;;;231.30;2252.80;;;;;;5057879;28;20062;-85
2021/11/26 10:36:26;;;;;;;13.73;10.65;;;231.30;2252.80;;;;;;5057023;28;20432;-84
2021/11/26 10:38:53;;;;;;;12.43;8.35;;;231.30;2252.80;;;;;;5057777;28;20031;-84
2021/11/26 10:41:30;;;;;;;11.93;8.10;;;231.30;2252.80;;;;;;5058110;28;20017;-87
2021/11/26 10:44:05;;;;;;;15.75;11.48;;;231.30;2252.80;;;;;;5059059;28;20020;-89
2021/11/26 10:59:47;;;;;;;37.20;22.50;;;231.30;2252.80;;;;;;5075660;28;20033;-89
2021/11/26 11:02:27;;;;;;;15.60;11.38;;;256.00;2252.80;;;;;;5058932;28;20027;-89
2021/11/26 11:04:54;;;;;;;19.13;14.07;;;256.00;2252.80;;;;;;5058633;28;20021;-84
2021/11/26 11:07:21;;;;;;;24.73;17.42;;;256.00;2252.80;;;;;;5055004;28;20377;-84
2021/11/26 11:09:50;;;;;;;18.15;14.32;;;256.00;2252.80;;;;;;5057254;28;20020;-81
2021/11/26 11:12:16;;;;;;;10.45;7.50;;;256.00;2252.80;;;;;;5057594;28;20193;-84
2021/11/26 11:14:55;;;;;;;16.27;11.60;;;256.10;2252.80;;;;;;5069258;28;20479;-84
2021/11/26 11:17:21;;;;;;;14.32;10.73;;;256.10;2252.80;;;;;;5037450;28;20078;-84
2021/11/26 11:19:47;;;;;;;11.88;9.02;;;256.20;2252.80;;;;;;5038046;28;20021;-86
2021/11/26 11:22:13;;;;;;;21.08;15.63;;;256.20;2252.80;;;;;;5037461;28;20060;-84
2021/11/26 11:24:40;;;;;;;9.80;6.78;;;256.20;2252.80;;;;;;5037256;28;20453;-84
2021/11/26 11:27:06;;;;;;;17.50;11.60;;;256.30;2252.80;;;;;;5037347;28;20033;-85
2021/11/26 11:29:32;;;;;;;13.63;10.82;;;256.30;2252.80;;;;;;5054682;28;20032;-84
2021/11/26 11:32:00;;;;;;;8.02;5.75;;;256.10;2252.80;;;;;;5043826;28;20024;-84
2021/11/26 11:34:29;;;;;;;9.25;6.05;;;256.30;2252.80;;;;;;5057023;28;20027;-84
2021/11/26 11:36:58;;;;;;;21.20;14.13;;;256.30;2252.80;;;;;;5056741;28;20024;-83
2021/11/26 11:39:24;;;;;;;19.60;14.38;;;256.30;2252.80;;;;;;5075139;28;20024;-87
2021/11/26 11:41:59;;;;;;;27.30;19.38;;;256.40;2252.80;;;;;;5057364;28;20031;-82
2021/11/26 11:44:34;;;;;;;20.80;15.15;;;256.40;2252.80;;;;;;5056142;28;20017;-79
2021/11/26 11:47:15;;;;;;;28.23;22.30;;;256.40;2252.80;;;;;;5056945;28;20082;-80
2021/11/26 11:49:41;;;;;;;43.63;25.88;;;256.40;2252.80;;;;;;5056525;28;20112;-79
2021/11/26 11:52:11;;;;;;;106.32;65.38;;;256.40;2252.80;;;;;;5055597;28;20107;-83
2021/11/26 11:54:40;;;;;;;53.10;30.42;;;256.50;2252.80;;;;;;5056168;28;20058;-82
2021/11/26 11:57:07;;;;;;;54.88;28.95;;;256.50;2252.80;;;;;;5055986;28;20024;-83
2021/11/26 11:59:37;;;;;;;43.10;22.45;;;256.50;2252.80;;;;;;5055517;28;20467;-81
2021/11/26 12:02:08;;;;;;;18.15;12.02;;;256.50;2252.80;;;;;;5056369;28;20072;-81
2021/11/26 12:04:40;;;;;;;17.88;12.38;;;256.50;2252.80;;;;;;5056159;28;20491;-82
2021/11/26 12:07:07;;;;;;;13.95;9.35;;;256.50;2252.80;;;;;;5055248;28;20052;-84
2021/11/26 12:09:34;;;;;;;25.65;17.77;;;256.50;2252.80;;;;;;5055988;28;20031;-81
2021/11/26 12:12:09;;;;;;;11.68;8.35;;;256.50;2252.80;;;;;;5056004;28;20017;-82
2021/11/26 12:14:56;;;;;;;18.20;12.38;;;256.60;2252.80;;;;;;5073388;28;20028;-82
2021/11/26 12:17:33;;;;;;;13.10;10.38;;;256.60;2252.80;;;;;;5055579;28;20450;-80
2021/11/26 12:20:20;;;;;;;9.73;6.43;;;256.70;2252.80;;;;;;5056609;28;20376;-88
2021/11/26 12:22:55;;;;;;;23.27;14.43;;;256.70;2252.80;;;;;;5056982;28;20029;-87
2021/11/26 12:28:13;;;;;;;14.80;12.07;;;256.70;2252.80;;;;;;5074520;28;20066;-85
2021/11/26 12:30:41;;;;;;;16.92;11.38;;;256.70;2252.80;;;;;;5056888;28;20104;-84
2021/11/26 12:33:22;;;;;;;14.70;9.90;;;256.70;2252.80;;;;;;5056091;28;20062;-87
2021/11/26 12:35:59;;;;;;;12.38;9.50;;;256.70;2252.80;;;;;;5073476;28;20020;-83
2021/11/26 12:38:55;;;;;;;13.80;8.35;;;256.80;2252.80;;;;;;5055460;28;20028;-82
2021/11/26 12:41:38;;;;;;;15.73;11.73;;;256.80;2252.80;;;;;;5038058;28;20094;-83
2021/11/26 12:44:06;;;;;;;16.63;12.60;;;256.80;2252.80;;;;;;5056411;28;20039;-81
2021/11/26 12:46:35;;;;;;;11.00;7.78;;;256.80;2252.80;;;;;;5055807;28;20103;-86
2021/11/26 12:51:50;;;;;;;9.57;6.55;;;256.80;2252.80;;;;;;5074129;28;20025;-80
2021/11/26 12:54:33;;;;;;;12.00;9.35;;;256.80;2252.80;;;;;;5055951;28;20025;-80
2021/11/26 12:57:03;;;;;;;7.82;5.40;;;256.90;2252.80;;;;;;5056327;28;20465;-83
2021/11/26 12:59:33;;;;;;;11.70;8.63;;;256.90;2252.80;;;;;;5054166;28;20033;-84
2021/11/26 13:01:59;;;;;;;11.10;4.90;;;256.90;2252.80;;;;;;5055891;28;20025;-85
2021/11/26 13:04:25;;;;;;;5.90;3.30;;;256.90;2252.80;;;;;;5054341;28;20017;-85
2021/11/26 13:07:09;;;;;;;11.27;9.88;;;256.90;2252.80;;;;;;5056249;28;20048;-88
2021/11/26 13:09:47;;;;;;;6.10;4.38;;;256.90;2252.80;;;;;;5056933;28;20478;-88
2021/11/26 13:12:15;;;;;;;10.73;5.70;;;256.90;2252.80;;;;;;5056833;28;20031;-87
2021/11/26 13:14:51;;;;;;;11.30;7.78;;;256.90;2252.80;;;;;;5056950;28;20073;-87
2021/11/26 13:17:19;;;;;;;15.60;11.52;;;281.60;2278.40;;;;;;5055930;28;20025;-87
2021/11/26 13:19:57;;;;;;;12.73;8.07;;;281.60;2278.40;;;;;;5054754;28;20078;-87
2021/11/26 13:22:23;;;;;;;13.30;9.65;;;281.70;2278.40;;;;;;5054734;28;20369;-85
2021/11/26 13:24:52;;;;;;;24.25;16.88;;;281.60;2278.40;;;;;;5055774;28;20107;-88
2021/11/26 13:27:18;;;;;;;13.52;7.95;;;256.90;2252.80;;;;;;5056492;28;20443;-86
2021/11/26 13:29:50;;;;;;;18.30;13.05;;;281.60;2278.40;;;;;;5056226;28;20028;-87
2021/11/26 13:32:16;;;;;;;22.55;13.52;;;281.60;2278.40;;;;;;5056451;28;20017;-88
2021/11/26 13:34:52;;;;;;;23.42;16.98;;;281.60;2278.40;;;;;;5057192;28;20081;-85
2021/11/26 13:37:19;;;;;;;11.75;8.13;;;256.90;2252.80;;;;;;5057571;28;20024;-86
2021/11/26 13:39:57;;;;;;;22.10;18.45;;;256.90;2252.80;;;;;;5061112;28;20459;-87
2021/11/26 13:42:23;;;;;;;39.97;32.55;;;281.60;2278.40;;;;;;5060198;28;20025;-87
2021/11/26 13:44:49;;;;;;;16.80;12.90;;;281.60;2278.40;;;;;;5059812;28;20448;-88
2021/11/26 13:47:20;;;;;;;13.98;8.25;;;281.60;2278.40;;;;;;5060161;28;20017;-87
2021/11/26 13:49:46;;;;;;;89.25;47.35;;;281.60;2278.40;;;;;;5060233;28;20115;-87
2021/11/26 13:52:12;;;;;;;53.05;30.15;;;281.60;2278.40;;;;;;5060155;28;20107;-87
2021/11/26 13:54:41;;;;;;;25.25;15.45;;;281.60;2278.40;;;;;;5059934;28;20017;-88
2021/11/26 13:57:08;;;;;;;14.70;9.10;;;256.90;2252.80;;;;;;5059797;28;20032;-86
2021/11/26 13:59:37;;;;;;;15.88;9.18;;;256.90;2252.80;;;;;;5059418;28;20482;-88
2021/11/26 14:02:12;;;;;;;14.50;8.77;;;256.90;2252.80;;;;;;5059945;28;20024;-87
2021/11/26 14:04:40;;;;;;;14.52;10.50;;;281.60;2278.40;;;;;;5059499;28;20032;-87
2021/11/26 14:07:12;;;;;;;25.52;17.25;;;281.60;2278.40;;;;;;5059556;28;20073;-87
2021/11/26 14:09:42;;;;;;;16.60;11.25;;;281.70;2278.40;;;;;;5059929;28;20043;-86
2021/11/26 14:12:14;;;;;;;21.98;15.77;;;281.60;2278.40;;;;;;5059461;28;20050;-86
2021/11/26 14:14:41;;;;;;;21.95;14.35;;;281.60;2278.40;;;;;;5059721;28;20017;-86
2021/11/26 14:17:10;;;;;;;10.15;7.32;;;281.70;2278.40;;;;;;5059523;28;20024;-86
2021/11/26 14:19:39;;;;;;;15.07;10.00;;;281.70;2278.40;;;;;;5059384;28;20039;-86
2021/11/26 14:22:10;;;;;;;14.00;10.95;;;281.70;2278.40;;;;;;5059238;28;20056;-87
2021/11/26 14:25:06;;;;;;;23.40;16.92;;;281.70;2278.40;;;;;;5059564;28;20032;-87
2021/11/26 14:27:35;;;;;;;27.98;17.70;;;281.70;2278.40;;;;;;5059112;28;20111;-86
2021/11/26 14:30:10;;;;;;;26.55;18.48;;;281.60;2278.40;;;;;;5059335;28;20031;-85
2021/11/26 14:32:39;;;;;;;26.48;20.58;;;281.60;2278.40;;;;;;5058899;28;20487;-86
2021/11/26 14:35:11;;;;;;;16.95;13.18;;;256.90;2252.80;;;;;;5059274;28;20031;-86
2021/11/26 14:37:39;;;;;;;17.20;11.65;;;256.90;2252.80;;;;;;5059476;28;20016;-87
2021/11/26 14:40:17;;;;;;;23.08;15.70;;;256.90;2252.80;;;;;;5059009;28;20031;-85
2021/11/26 14:42:42;;;;;;;22.20;15.75;;;256.90;2252.80;;;;;;5058801;28;20032;-85
2021/11/26 14:45:08;;;;;;;15.38;10.95;;;256.90;2252.80;;;;;;5059006;28;20016;-86
2021/11/26 14:47:38;;;;;;;20.73;12.05;;;256.90;2252.80;;;;;;5058633;28;20021;-86
2021/11/26 14:50:25;;;;;;;15.75;9.93;;;256.90;2252.80;;;;;;5076500;28;20066;-86
2021/11/26 14:52:51;;;;;;;15.10;11.05;;;256.90;2252.80;;;;;;5059220;28;20409;-85
2021/11/26 14:55:18;;;;;;;22.25;16.25;;;256.90;2252.80;;;;;;5058644;28;20139;-86
2021/11/26 14:57:46;;;;;;;24.50;19.27;;;256.90;2252.80;;;;;;5058870;28;20025;-86
2021/11/26 15:00:12;;;;;;;27.40;20.45;;;256.90;2252.80;;;;;;5058606;28;20028;-85
2021/11/26 15:02:38;;;;;;;28.00;18.98;;;256.90;2252.80;;;;;;5059700;28;20031;-87
2021/11/26 15:05:05;;;;;;;38.90;25.33;;;256.90;2252.80;;;;;;5060630;28;20044;-86
2021/11/26 15:07:31;;;;;;;34.92;23.90;;;256.80;2252.80;;;;;;5058000;28;20479;-85
2021/11/26 15:09:59;;;;;;;24.42;19.38;;;256.80;2252.80;;;;;;5058342;28;20024;-86
2021/11/26 15:12:25;;;;;;;21.50;16.02;;;256.80;2252.80;;;;;;5058512;28;20115;-86
2021/11/26 15:14:51;;;;;;;33.60;22.33;;;256.80;2252.80;;;;;;5058278;28;20055;-85
2021/11/26 15:17:17;;;;;;;38.47;26.08;;;256.80;2252.80;;;;;;5058556;28;20024;-85
2021/11/26 15:19:43;;;;;;;35.22;22.35;;;256.80;2252.80;;;;;;5058683;28;20376;-86
2021/11/26 15:22:09;;;;;;;62.33;40.42;;;256.80;2252.80;;;;;;5058214;28;20024;-86
2021/11/26 15:24:36;;;;;;;57.35;40.08;;;256.70;2252.80;;;;;;5076292;28;20020;-85
2021/11/26 15:27:02;;;;;;;41.58;28.17;;;256.70;2252.80;;;;;;5057982;28;20043;-83
2021/11/26 15:29:27;;;;;;;17.35;12.20;;;256.70;2252.80;;;;;;5075252;28;20024;-78
2021/11/26 15:31:53;;;;;;;15.73;10.75;;;256.70;2252.80;;;;;;5055763;28;20017;-83
2021/11/26 15:34:19;;;;;;;18.10;13.35;;;256.80;2252.80;;;;;;5057778;28;20028;-84
2021/11/26 15:36:45;;;;;;;23.73;16.25;;;256.80;2252.80;;;;;;5057000;28;20036;-83
2021/11/26 15:39:14;;;;;;;23.65;15.48;;;256.80;2252.80;;;;;;5056306;28;20029;-82
2021/11/26 15:41:42;;;;;;;19.27;13.75;;;256.80;2252.80;;;;;;5074804;28;20016;-83
2021/11/26 15:44:09;;;;;;;27.23;19.15;;;256.80;2252.80;;;;;;5056679;28;20017;-82
2021/11/26 15:46:35;;;;;;;22.30;15.52;;;256.70;2252.80;;;;;;5056631;28;20028;-83
2021/11/26 15:49:01;;;;;;;20.83;15.13;;;256.70;2252.80;;;;;;5057043;28;20028;-82
2021/11/26 15:51:27;;;;;;;16.35;12.65;;;256.70;2252.80;;;;;;5060948;28;20444;-83
2021/11/26 15:53:54;;;;;;;111.63;55.55;;;256.70;2252.80;;;;;;5064143;28;20036;-83
2021/11/26 15:56:20;;;;;;;34.85;18.27;;;256.70;2252.80;;;;;;5080457;28;20040;-82
2021/11/26 15:58:46;;;;;;;34.47;25.58;;;256.70;2252.80;;;;;;5077330;28;20016;-83
2021/11/26 16:01:15;;;;;;;14.73;9.82;;;256.80;2252.80;;;;;;5078318;28;20013;-82
2021/11/26 16:03:41;;;;;;;19.80;15.05;;;256.70;2252.80;;;;;;5081514;28;20008;-82
2021/11/26 16:06:07;;;;;;;20.33;13.85;;;256.70;2252.80;;;;;;5081604;28;20090;-81
2021/11/26 16:08:34;;;;;;;28.75;20.42;;;256.80;2252.80;;;;;;5063594;28;20028;-83
2021/11/26 16:11:01;;;;;;;124.18;77.35;;;256.70;2252.80;;;;;;5057699;28;20482;-83
2021/11/26 16:13:28;;;;;;;101.57;60.88;;;256.70;2252.80;;;;;;5058297;28;20024;-82
2021/11/26 16:15:56;;;;;;;104.28;66.15;;;256.70;2252.80;;;;;;5058099;28;20038;-82
2021/11/26 16:18:22;;;;;;;63.30;43.60;;;256.80;2252.80;;;;;;5056410;28;20090;-82
2021/11/26 16:20:49;;;;;;;35.42;22.83;;;256.70;2252.80;;;;;;5074383;28;20055;-82